Time;durP1;ratioP1;P1;durP2;ratioP2;P2;SDS_P1;SDS_P2;PMS_P1;PMS_P2;Temp;Humidity;BMP_temperature;BMP_pressure;BME280_temperature;BME280_humidity;BME280_pressure;Samples;Min_cycle;Max_cycle;Signal;HPM_P1;HPM_P2
2022/02/14 00:00:29;;;;;;;3.28;2.60;;;;;;;;;;4988098;28;20038;-71
2022/02/14 00:02:55;;;;;;;6.63;3.83;;;;;;;;;;4984089;28;20054;-72
2022/02/14 00:05:21;;;;;;;4.05;2.58;;;;;;;;;;4980103;28;20031;-72
2022/02/14 00:07:47;;;;;;;3.70;2.58;;;;;;;;;;4991014;28;20449;-71
2022/02/14 00:10:14;;;;;;;4.90;2.58;;;;;;;;;;4989959;28;20034;-72
2022/02/14 00:12:41;;;;;;;3.58;2.60;;;;;;;;;;4986775;28;20030;-73
2022/02/14 00:15:08;;;;;;;3.00;2.30;;;;;;;;;;4988111;28;20045;-70
2022/02/14 00:17:34;;;;;;;4.03;2.30;;;;;;;;;;4984556;28;20277;-71
2022/02/14 00:20:02;;;;;;;5.18;3.50;;;;;;;;;;4991041;28;20469;-72
2022/02/14 00:22:28;;;;;;;4.00;3.22;;;;;;;;;;4995759;28;20063;-72
2022/02/14 00:24:54;;;;;;;3.00;2.70;;;;;;;;;;4991906;28;20030;-72
2022/02/14 00:27:20;;;;;;;6.35;2.78;;;;;;;;;;4986181;28;21549;-71
2022/02/14 00:29:47;;;;;;;3.28;2.38;;;;;;;;;;4981088;28;20033;-72
2022/02/14 00:32:13;;;;;;;4.20;2.70;;;;;;;;;;4986875;28;20620;-72
2022/02/14 00:34:40;;;;;;;3.70;2.35;;;;;;;;;;4984993;28;20081;-72
2022/02/14 00:37:06;;;;;;;4.78;2.83;;;;;;;;;;4981680;28;20037;-72
2022/02/14 00:39:32;;;;;;;6.40;3.67;;;;;;;;;;4989914;28;20039;-72
2022/02/14 00:41:58;;;;;;;5.68;3.35;;;;;;;;;;4985387;28;20536;-72
2022/02/14 00:44:24;;;;;;;7.90;4.78;;;;;;;;;;4986170;28;20488;-73
2022/02/14 00:46:51;;;;;;;6.93;4.32;;;;;;;;;;4996577;28;20193;-71
2022/02/14 00:49:17;;;;;;;6.47;4.60;;;;;;;;;;4985441;28;20037;-71
2022/02/14 00:51:43;;;;;;;3.78;3.08;;;;;;;;;;4988845;28;20104;-72
2022/02/14 00:54:09;;;;;;;4.10;2.60;;;;;;;;;;4991182;28;20385;-71
2022/02/14 00:56:35;;;;;;;4.35;3.30;;;;;;;;;;4993449;28;20030;-71
2022/02/14 00:59:01;;;;;;;5.25;3.50;;;;;;;;;;4992012;28;20033;-70
2022/02/14 01:01:31;;;;;;;8.95;4.03;;;;;;;;;;5004091;28;20645;-71
2022/02/14 01:03:57;;;;;;;3.60;3.15;;;;;;;;;;5007337;28;20122;-71
2022/02/14 01:06:26;;;;;;;4.82;3.50;;;;;;;;;;4987598;28;20022;-71
2022/02/14 01:08:53;;;;;;;5.70;3.63;;;;;;;;;;4986074;28;20088;-71
2022/02/14 01:11:19;;;;;;;4.25;3.40;;;;;;;;;;4993672;28;20068;-71
2022/02/14 01:13:45;;;;;;;4.30;3.00;;;;;;;;;;4981190;28;20563;-72
2022/02/14 01:16:11;;;;;;;4.25;2.67;;;;;;;;;;4985348;28;20102;-70
2022/02/14 01:18:37;;;;;;;3.40;3.10;;;;;;;;;;4982008;28;20035;-71
2022/02/14 01:21:04;;;;;;;4.90;2.80;;;;;;;;;;4990796;28;20026;-72
2022/02/14 01:23:30;;;;;;;4.40;3.00;;;;;;;;;;4985605;28;20507;-71
2022/02/14 01:25:56;;;;;;;8.02;2.90;;;;;;;;;;4988558;28;20038;-71
2022/02/14 01:28:22;;;;;;;4.35;2.83;;;;;;;;;;4995889;28;20030;-71
2022/02/14 01:30:48;;;;;;;4.65;2.80;;;;;;;;;;4991006;28;20054;-72
2022/02/14 01:33:15;;;;;;;3.50;2.83;;;;;;;;;;4984398;28;20073;-71
2022/02/14 01:35:41;;;;;;;5.22;3.00;;;;;;;;;;4981730;28;20097;-71
2022/02/14 01:38:07;;;;;;;7.25;3.33;;;;;;;;;;4987084;28;20030;-71
2022/02/14 01:40:33;;;;;;;3.20;2.42;;;;;;;;;;4997707;28;20038;-72
2022/02/14 01:42:59;;;;;;;3.22;2.40;;;;;;;;;;4990191;28;20097;-71
2022/02/14 01:45:26;;;;;;;3.95;2.53;;;;;;;;;;4988011;28;20034;-72
2022/02/14 01:47:52;;;;;;;5.70;3.28;;;;;;;;;;4999282;28;20525;-70
2022/02/14 01:50:18;;;;;;;4.00;2.85;;;;;;;;;;4990718;28;20105;-73
2022/02/14 01:52:44;;;;;;;5.30;2.95;;;;;;;;;;4998161;28;20026;-71
2022/02/14 01:55:11;;;;;;;3.83;2.88;;;;;;;;;;4980779;28;20046;-72
2022/02/14 01:57:38;;;;;;;8.65;3.15;;;;;;;;;;4986082;28;20026;-71
2022/02/14 02:00:06;;;;;;;3.83;2.83;;;;;;;;;;4994812;28;20034;-72
2022/02/14 02:02:32;;;;;;;3.50;2.20;;;;;;;;;;4997829;28;20030;-71
2022/02/14 02:04:59;;;;;;;3.65;2.55;;;;;;;;;;4998068;28;20039;-72
2022/02/14 02:07:25;;;;;;;3.15;2.20;;;;;;;;;;4994196;28;20097;-71
2022/02/14 02:09:51;;;;;;;3.33;1.90;;;;;;;;;;5004574;28;20030;-72
2022/02/14 02:12:24;;;;;;;3.22;2.80;;;;;;;;;;4989375;28;20045;-70
2022/02/14 02:14:55;;;;;;;2.35;1.90;;;;;;;;;;4985084;28;20109;-71
2022/02/14 02:17:22;;;;;;;4.50;2.15;;;;;;;;;;4986910;28;20031;-71
2022/02/14 02:19:49;;;;;;;2.15;1.73;;;;;;;;;;4993758;28;20529;-72
2022/02/14 02:22:15;;;;;;;2.97;1.90;;;;;;;;;;4985243;28;20034;-72
2022/02/14 02:24:50;;;;;;;3.20;1.80;;;;;;;;;;4985071;28;20031;-70
2022/02/14 02:27:17;;;;;;;2.05;1.80;;;;;;;;;;4988442;28;20026;-71
2022/02/14 02:29:44;;;;;;;1.85;1.73;;;;;;;;;;4992276;28;20045;-70
2022/02/14 02:32:10;;;;;;;1.60;1.50;;;;;;;;;;4988715;28;20033;-72
2022/02/14 02:34:40;;;;;;;3.08;1.80;;;;;;;;;;4984248;28;20029;-71
2022/02/14 02:37:08;;;;;;;3.13;1.80;;;;;;;;;;4987537;28;20022;-71
2022/02/14 02:39:34;;;;;;;3.03;2.00;;;;;;;;;;4990780;28;20363;-71
2022/02/14 02:42:02;;;;;;;2.78;2.20;;;;;;;;;;4990274;28;20154;-70
2022/02/14 02:44:29;;;;;;;2.60;2.15;;;;;;;;;;4989828;28;20038;-70
2022/02/14 02:46:55;;;;;;;2.78;1.88;;;;;;;;;;4989242;28;20078;-71
2022/02/14 02:49:22;;;;;;;2.63;1.80;;;;;;;;;;4983717;28;20042;-72
2022/02/14 02:51:50;;;;;;;2.33;1.75;;;;;;;;;;4990144;28;20035;-71
2022/02/14 02:54:17;;;;;;;2.63;1.92;;;;;;;;;;4988173;28;20037;-71
2022/02/14 02:56:44;;;;;;;3.00;2.55;;;;;;;;;;4985639;28;20477;-72
2022/02/14 02:59:10;;;;;;;3.70;1.80;;;;;;;;;;4985763;28;20053;-70
2022/02/14 03:01:37;;;;;;;2.70;1.52;;;;;;;;;;4993546;28;20041;-70
2022/02/14 03:04:04;;;;;;;2.72;1.70;;;;;;;;;;4984471;28;20037;-71
2022/02/14 03:06:31;;;;;;;2.17;1.85;;;;;;;;;;4991252;28;20034;-70
2022/02/14 03:08:57;;;;;;;2.25;1.70;;;;;;;;;;4984142;28;20054;-71
2022/02/14 03:11:23;;;;;;;3.83;2.10;;;;;;;;;;4992605;28;20026;-72
2022/02/14 03:13:50;;;;;;;2.92;1.65;;;;;;;;;;4985224;28;20049;-71
2022/02/14 03:16:17;;;;;;;1.85;1.67;;;;;;;;;;4996536;28;20033;-71
2022/02/14 03:18:44;;;;;;;1.65;1.55;;;;;;;;;;4987908;28;20034;-72
2022/02/14 03:21:10;;;;;;;2.25;1.90;;;;;;;;;;4991970;28;20054;-70
2022/02/14 03:23:37;;;;;;;3.22;1.90;;;;;;;;;;4992254;28;20037;-71
2022/02/14 03:26:03;;;;;;;3.55;2.08;;;;;;;;;;4983633;28;20022;-71
2022/02/14 03:28:29;;;;;;;1.63;1.52;;;;;;;;;;4986795;28;20034;-71
2022/02/14 03:30:55;;;;;;;4.80;2.00;;;;;;;;;;4997161;28;20396;-71
2022/02/14 03:33:22;;;;;;;4.28;2.03;;;;;;;;;;4984961;28;20117;-70
2022/02/14 03:35:48;;;;;;;3.05;2.40;;;;;;;;;;4984215;28;20425;-71
2022/02/14 03:38:15;;;;;;;3.08;1.90;;;;;;;;;;4987299;28;20062;-71
2022/02/14 03:40:41;;;;;;;7.20;2.50;;;;;;;;;;4985527;28;20030;-72
2022/02/14 03:43:08;;;;;;;3.80;2.20;;;;;;;;;;4981224;28;20031;-71
2022/02/14 03:45:35;;;;;;;2.92;2.40;;;;;;;;;;4989658;28;20040;-71
2022/02/14 03:48:01;;;;;;;2.95;2.13;;;;;;;;;;4981548;28;20114;-70
2022/02/14 03:50:27;;;;;;;2.63;2.10;;;;;;;;;;4989980;28;20031;-71
2022/02/14 03:52:54;;;;;;;2.58;2.00;;;;;;;;;;4989495;28;20030;-71
2022/02/14 03:55:21;;;;;;;5.80;2.13;;;;;;;;;;4988764;28;20098;-69
2022/02/14 03:57:50;;;;;;;3.72;2.65;;;;;;;;;;4988059;28;20038;-72
2022/02/14 04:00:17;;;;;;;3.55;2.50;;;;;;;;;;5005378;28;20388;-71
2022/02/14 04:02:43;;;;;;;3.15;2.20;;;;;;;;;;4987318;28;20113;-72
2022/02/14 04:05:09;;;;;;;2.63;2.30;;;;;;;;;;4984712;28;20038;-72
2022/02/14 04:07:36;;;;;;;5.15;2.40;;;;;;;;;;4987481;28;20034;-72
2022/02/14 04:10:02;;;;;;;5.18;2.90;;;;;;;;;;4987170;28;20502;-72
2022/02/14 04:12:28;;;;;;;5.05;2.30;;;;;;;;;;4992626;28;20030;-72
2022/02/14 04:14:54;;;;;;;5.97;2.42;;;;;;;;;;4987150;28;20117;-72
2022/02/14 04:17:20;;;;;;;5.20;2.25;;;;;;;;;;4994054;28;20034;-70
2022/02/14 04:19:47;;;;;;;4.32;2.45;;;;;;;;;;4991095;28;20065;-70
2022/02/14 04:22:13;;;;;;;3.10;2.28;;;;;;;;;;4990373;28;20026;-71
2022/02/14 04:24:40;;;;;;;3.88;2.20;;;;;;;;;;4986482;28;20512;-72
2022/02/14 04:27:06;;;;;;;3.22;2.13;;;;;;;;;;4989648;28;20441;-72
2022/02/14 04:29:32;;;;;;;3.17;2.10;;;;;;;;;;4992871;28;20386;-70
2022/02/14 04:31:58;;;;;;;2.63;1.90;;;;;;;;;;4993389;28;20026;-70
2022/02/14 04:34:25;;;;;;;5.05;2.20;;;;;;;;;;4991823;28;20046;-71
2022/02/14 04:36:51;;;;;;;4.03;2.05;;;;;;;;;;4991577;28;20514;-72
2022/02/14 04:39:18;;;;;;;4.25;1.77;;;;;;;;;;4987583;28;20583;-71
2022/02/14 04:41:44;;;;;;;3.50;2.33;;;;;;;;;;4995597;28;20030;-73
2022/02/14 04:44:11;;;;;;;2.45;1.90;;;;;;;;;;4995248;28;20518;-71
2022/02/14 04:46:37;;;;;;;4.68;2.33;;;;;;;;;;4988701;28;20120;-72
2022/02/14 04:49:04;;;;;;;3.65;1.98;;;;;;;;;;4992614;28;20168;-70
2022/02/14 04:51:30;;;;;;;2.17;1.92;;;;;;;;;;4994208;28;20134;-72
2022/02/14 04:53:57;;;;;;;3.03;1.92;;;;;;;;;;4988091;28;20031;-71
2022/02/14 04:56:23;;;;;;;3.92;1.50;;;;;;;;;;4987614;28;20023;-70
2022/02/14 04:58:49;;;;;;;4.80;1.77;;;;;;;;;;4994723;28;20485;-71
2022/02/14 05:01:15;;;;;;;3.65;2.03;;;;;;;;;;4995680;28;20045;-72
2022/02/14 05:03:42;;;;;;;2.53;1.45;;;;;;;;;;4983263;28;20041;-70
2022/02/14 05:06:08;;;;;;;1.92;1.50;;;;;;;;;;4993251;28;20031;-72
2022/02/14 05:08:34;;;;;;;1.58;1.48;;;;;;;;;;4990544;28;20117;-71
2022/02/14 05:11:02;;;;;;;2.17;1.90;;;;;;;;;;4990028;28;20026;-71
2022/02/14 05:13:28;;;;;;;2.63;1.67;;;;;;;;;;4987227;28;20034;-72
2022/02/14 05:15:54;;;;;;;2.40;1.50;;;;;;;;;;4992229;28;20413;-72
2022/02/14 05:18:20;;;;;;;2.17;1.70;;;;;;;;;;4981386;28;20031;-71
2022/02/14 05:20:46;;;;;;;3.67;1.60;;;;;;;;;;4986286;28;20034;-72
2022/02/14 05:23:12;;;;;;;2.42;1.70;;;;;;;;;;4985906;28;20029;-71
2022/02/14 05:25:39;;;;;;;1.77;1.67;;;;;;;;;;4987173;28;20023;-70
2022/02/14 05:28:09;;;;;;;1.83;1.65;;;;;;;;;;4993163;28;20128;-71
2022/02/14 05:30:35;;;;;;;3.25;1.60;;;;;;;;;;4992120;28;20504;-71
2022/02/14 05:33:01;;;;;;;1.50;1.40;;;;;;;;;;4987131;28;20154;-71
2022/02/14 05:35:27;;;;;;;2.70;1.92;;;;;;;;;;4986857;28;20031;-72
2022/02/14 05:37:55;;;;;;;3.97;1.75;;;;;;;;;;4986183;28;20057;-71
2022/02/14 05:40:21;;;;;;;1.58;1.48;;;;;;;;;;4986167;28;20038;-71
2022/02/14 05:42:47;;;;;;;2.50;1.38;;;;;;;;;;4986776;28;20109;-71
2022/02/14 05:45:13;;;;;;;1.48;1.38;;;;;;;;;;4991167;28;20033;-71
2022/02/14 05:47:39;;;;;;;1.73;1.40;;;;;;;;;;5002302;28;20038;-71
2022/02/14 05:50:07;;;;;;;1.95;1.77;;;;;;;;;;4985774;28;20023;-71
2022/02/14 05:52:34;;;;;;;4.43;1.73;;;;;;;;;;4985640;28;20027;-71
2022/02/14 05:55:00;;;;;;;1.67;1.52;;;;;;;;;;4995515;28;20027;-73
2022/02/14 05:57:26;;;;;;;2.67;1.58;;;;;;;;;;4994742;28;20032;-72
2022/02/14 05:59:54;;;;;;;2.47;1.70;;;;;;;;;;5000268;28;20105;-72
2022/02/14 06:02:20;;;;;;;3.08;1.58;;;;;;;;;;5004034;28;20396;-72
2022/02/14 06:04:46;;;;;;;2.33;1.70;;;;;;;;;;4978807;28;20091;-71
2022/02/14 06:07:12;;;;;;;3.30;1.90;;;;;;;;;;4984269;28;20515;-72
2022/02/14 06:09:38;;;;;;;4.60;2.30;;;;;;;;;;4995086;28;20510;-70
2022/02/14 06:12:04;;;;;;;5.95;2.05;;;;;;;;;;4988292;28;20018;-70
2022/02/14 06:14:32;;;;;;;3.97;1.80;;;;;;;;;;4991569;28;20430;-70
2022/02/14 06:16:58;;;;;;;2.78;1.73;;;;;;;;;;4987821;28;20026;-71
2022/02/14 06:19:25;;;;;;;3.20;2.10;;;;;;;;;;4979095;28;20046;-72
2022/02/14 06:21:51;;;;;;;4.43;1.80;;;;;;;;;;4992799;28;20688;-71
2022/02/14 06:24:17;;;;;;;2.95;2.05;;;;;;;;;;4977185;28;20075;-71
2022/02/14 06:26:44;;;;;;;2.00;1.60;;;;;;;;;;4984142;28;20057;-71
2022/02/14 06:29:10;;;;;;;5.68;2.10;;;;;;;;;;4988620;28;20528;-72
2022/02/14 06:31:37;;;;;;;3.28;1.80;;;;;;;;;;4993771;28;20136;-71
2022/02/14 06:34:03;;;;;;;1.52;1.40;;;;;;;;;;4989619;28;20037;-72
2022/02/14 06:36:30;;;;;;;2.78;1.58;;;;;;;;;;4990306;28;20082;-72
2022/02/14 06:38:57;;;;;;;3.58;2.10;;;;;;;;;;4992202;28;20045;-73
2022/02/14 06:41:24;;;;;;;5.80;1.90;;;;;;;;;;4998470;28;20129;-71
2022/02/14 06:43:51;;;;;;;1.58;1.45;;;;;;;;;;4988015;28;20060;-72
2022/02/14 06:46:18;;;;;;;5.20;2.28;;;;;;;;;;4989409;28;20034;-71
2022/02/14 06:48:44;;;;;;;1.52;1.40;;;;;;;;;;4982688;28;20710;-71
2022/02/14 06:51:11;;;;;;;3.28;1.48;;;;;;;;;;4984166;28;20037;-72
2022/02/14 06:53:37;;;;;;;3.65;1.80;;;;;;;;;;4986464;28;20388;-71
2022/02/14 06:56:07;;;;;;;2.33;1.40;;;;;;;;;;4988491;28;20019;-71
2022/02/14 06:58:37;;;;;;;4.60;1.90;;;;;;;;;;4987240;28;20029;-71
2022/02/14 07:01:05;;;;;;;2.35;1.30;;;;;;;;;;4987945;28;20117;-70
2022/02/14 07:03:31;;;;;;;2.17;1.60;;;;;;;;;;4990120;28;20037;-72
2022/02/14 07:05:57;;;;;;;1.85;1.23;;;;;;;;;;4992093;28;20026;-72
2022/02/14 07:08:24;;;;;;;3.08;1.80;;;;;;;;;;4987091;28;20034;-71
2022/02/14 07:10:50;;;;;;;1.40;1.30;;;;;;;;;;4989381;28;20475;-71
2022/02/14 07:13:16;;;;;;;1.60;1.42;;;;;;;;;;4988408;28;20035;-72
2022/02/14 07:15:42;;;;;;;2.90;1.52;;;;;;;;;;4987982;28;20047;-72
2022/02/14 07:18:13;;;;;;;4.85;1.50;;;;;;;;;;4984868;28;20032;-71
2022/02/14 07:20:40;;;;;;;2.08;1.55;;;;;;;;;;4988910;28;20035;-71
2022/02/14 07:23:06;;;;;;;1.80;1.55;;;;;;;;;;4977886;28;20038;-73
2022/02/14 07:25:33;;;;;;;3.30;1.40;;;;;;;;;;4981796;28;20034;-71
2022/02/14 07:27:59;;;;;;;2.72;1.42;;;;;;;;;;5000038;28;20030;-70
2022/02/14 07:30:25;;;;;;;2.97;1.67;;;;;;;;;;4986008;28;20468;-70
2022/02/14 07:32:51;;;;;;;1.75;1.50;;;;;;;;;;4992067;28;20022;-72
2022/02/14 07:35:18;;;;;;;2.05;1.35;;;;;;;;;;4978840;28;20030;-71
2022/02/14 07:37:44;;;;;;;2.60;1.60;;;;;;;;;;4984677;28;20445;-71
2022/02/14 07:40:11;;;;;;;1.90;1.50;;;;;;;;;;4983662;28;20034;-72
2022/02/14 07:42:37;;;;;;;2.00;1.33;;;;;;;;;;4980897;28;20049;-71
2022/02/14 07:45:04;;;;;;;3.10;1.40;;;;;;;;;;4987394;28;20037;-71
2022/02/14 07:47:30;;;;;;;3.53;1.42;;;;;;;;;;4986456;28;20030;-70
2022/02/14 07:49:56;;;;;;;2.63;1.77;;;;;;;;;;4989778;28;20611;-72
2022/02/14 07:52:23;;;;;;;1.95;1.55;;;;;;;;;;4998173;28;20124;-70
2022/02/14 07:54:49;;;;;;;5.05;1.60;;;;;;;;;;4979685;28;20036;-72
2022/02/14 07:57:15;;;;;;;2.20;1.48;;;;;;;;;;5004284;28;20121;-71
2022/02/14 07:59:42;;;;;;;2.88;1.50;;;;;;;;;;4989209;28;20030;-71
2022/02/14 08:02:08;;;;;;;4.10;2.13;;;;;;;;;;5011584;28;20045;-71
2022/02/14 08:04:34;;;;;;;1.83;1.23;;;;;;;;;;5004139;28;20059;-72
2022/02/14 08:07:04;;;;;;;3.30;1.65;;;;;;;;;;4992065;28;20093;-71
2022/02/14 08:09:30;;;;;;;2.58;1.48;;;;;;;;;;4987719;28;20500;-71
2022/02/14 08:11:57;;;;;;;3.53;1.58;;;;;;;;;;5002982;28;20064;-72
2022/02/14 08:14:23;;;;;;;3.10;1.50;;;;;;;;;;4992865;28;20051;-71
2022/02/14 08:16:49;;;;;;;2.75;1.80;;;;;;;;;;4994372;28;20031;-72
2022/02/14 08:19:16;;;;;;;6.13;1.83;;;;;;;;;;4989239;28;20384;-72
2022/02/14 08:21:42;;;;;;;2.70;1.38;;;;;;;;;;4998923;28;20050;-72
2022/02/14 08:24:08;;;;;;;2.25;1.20;;;;;;;;;;4992656;28;20057;-71
2022/02/14 08:26:35;;;;;;;4.53;1.52;;;;;;;;;;4991767;28;20116;-72
2022/02/14 08:29:02;;;;;;;2.25;1.73;;;;;;;;;;4984425;28;20027;-71
2022/02/14 08:31:28;;;;;;;2.17;1.42;;;;;;;;;;4982872;28;20068;-71
2022/02/14 08:33:57;;;;;;;3.45;1.50;;;;;;;;;;4989060;28;20015;-71
2022/02/14 08:36:23;;;;;;;1.73;1.60;;;;;;;;;;4984218;28;20122;-71
2022/02/14 08:38:49;;;;;;;3.08;1.58;;;;;;;;;;4993251;28;20037;-72
2022/02/14 08:41:15;;;;;;;7.13;2.05;;;;;;;;;;4993067;28;20030;-72
2022/02/14 08:43:41;;;;;;;3.08;1.58;;;;;;;;;;4990043;28;20035;-72
2022/02/14 08:46:08;;;;;;;5.22;1.70;;;;;;;;;;4988685;28;20105;-72
2022/02/14 08:48:34;;;;;;;3.65;1.85;;;;;;;;;;4993338;28;20089;-72
2022/02/14 08:51:02;;;;;;;3.85;1.60;;;;;;;;;;4994262;28;20037;-71
2022/02/14 08:53:31;;;;;;;3.00;1.77;;;;;;;;;;4988823;28;20038;-71
2022/02/14 08:55:59;;;;;;;1.65;1.50;;;;;;;;;;4988292;28;20110;-70
2022/02/14 08:58:25;;;;;;;3.03;2.42;;;;;;;;;;4994499;28;20030;-71
2022/02/14 09:00:51;;;;;;;3.70;1.63;;;;;;;;;;4988817;28;20029;-71
2022/02/14 09:03:17;;;;;;;5.50;2.53;;;;;;;;;;4986805;28;20034;-71
2022/02/14 09:05:44;;;;;;;3.60;1.50;;;;;;;;;;4984571;28;20033;-72
2022/02/14 09:08:10;;;;;;;5.88;2.03;;;;;;;;;;4985258;28;20056;-72
2022/02/14 09:10:36;;;;;;;3.20;1.63;;;;;;;;;;4995915;28;20435;-72
2022/02/14 09:13:02;;;;;;;3.42;2.35;;;;;;;;;;4986009;28;20076;-71
2022/02/14 09:15:28;;;;;;;3.20;1.38;;;;;;;;;;4987449;28;20054;-70
2022/02/14 09:17:55;;;;;;;1.25;1.23;;;;;;;;;;4985188;28;20033;-70
2022/02/14 09:20:23;;;;;;;5.05;1.77;;;;;;;;;;4990685;28;20389;-72
2022/02/14 09:22:54;;;;;;;3.22;1.65;;;;;;;;;;5004134;28;20209;-70
2022/02/14 09:25:21;;;;;;;5.95;2.00;;;;;;;;;;4988488;28;20114;-72
2022/02/14 09:27:47;;;;;;;9.77;1.85;;;;;;;;;;4987556;28;20492;-71
2022/02/14 09:30:13;;;;;;;4.38;1.58;;;;;;;;;;4986178;28;20366;-71
2022/02/14 09:32:39;;;;;;;1.75;1.65;;;;;;;;;;4993676;28;20038;-70
2022/02/14 09:35:06;;;;;;;2.47;1.60;;;;;;;;;;4990234;28;20482;-70
2022/02/14 09:37:32;;;;;;;7.07;2.58;;;;;;;;;;4984452;28;20030;-72
2022/02/14 09:39:59;;;;;;;6.68;2.20;;;;;;;;;;4990050;28;20023;-71
2022/02/14 09:42:25;;;;;;;3.10;1.55;;;;;;;;;;4986564;28;20041;-71
2022/02/14 09:44:51;;;;;;;2.67;1.73;;;;;;;;;;4986017;28;20511;-72
2022/02/14 09:47:17;;;;;;;2.55;1.88;;;;;;;;;;4987723;28;20034;-72
2022/02/14 09:49:50;;;;;;;4.32;1.63;;;;;;;;;;4990677;28;20042;-71
2022/02/14 09:52:16;;;;;;;2.78;1.50;;;;;;;;;;5009750;28;20019;-72
2022/02/14 09:54:42;;;;;;;3.90;1.75;;;;;;;;;;4988141;28;20476;-72
2022/02/14 09:57:08;;;;;;;4.00;1.92;;;;;;;;;;4986447;28;20042;-72
2022/02/14 09:59:36;;;;;;;2.72;1.75;;;;;;;;;;4988461;28;20030;-71
2022/02/14 10:02:18;;;;;;;4.85;1.73;;;;;;;;;;5006153;28;20098;-71
2022/02/14 10:05:05;;;;;;;3.33;1.92;;;;;;;;;;4990858;28;20057;-71
2022/02/14 10:07:47;;;;;;;7.72;1.90;;;;;;;;;;4980611;28;20031;-71
2022/02/14 10:10:21;;;;;;;2.70;1.73;;;;;;;;;;4989823;28;20023;-71
2022/02/14 10:12:49;;;;;;;3.65;1.92;;;;;;;;;;4981121;28;20058;-71
2022/02/14 10:15:16;;;;;;;7.03;2.22;;;;;;;;;;4987217;28;20055;-70
2022/02/14 10:17:45;;;;;;;3.72;1.90;;;;;;;;;;4988707;28;20503;-71
2022/02/14 10:20:15;;;;;;;6.70;2.83;;;;;;;;;;4985260;28;20038;-71
2022/02/14 10:22:51;;;;;;;5.57;2.38;;;;;;;;;;4989746;28;20030;-71
2022/02/14 10:25:31;;;;;;;5.22;2.30;;;;;;;;;;5003359;28;20038;-70
2022/02/14 10:28:13;;;;;;;2.83;2.00;;;;;;;;;;4991958;28;20045;-70
2022/02/14 10:31:01;;;;;;;3.95;2.47;;;;;;;;;;4992097;28;20022;-74
2022/02/14 10:33:49;;;;;;;4.53;2.50;;;;;;;;;;5001885;28;20038;-71
2022/02/14 10:36:24;;;;;;;5.03;2.15;;;;;;;;;;4987124;28;20065;-71
2022/02/14 10:38:50;;;;;;;5.93;2.60;;;;;;;;;;4990087;28;20526;-72
2022/02/14 10:41:17;;;;;;;3.20;2.50;;;;;;;;;;4991720;28;20025;-70
2022/02/14 10:43:47;;;;;;;2.85;1.70;;;;;;;;;;4991029;28;20037;-71
2022/02/14 10:46:20;;;;;;;5.50;1.80;;;;;;;;;;4990804;28;20038;-71
2022/02/14 10:48:46;;;;;;;3.05;1.80;;;;;;;;;;4991117;28;20121;-72
2022/02/14 10:51:19;;;;;;;6.03;2.00;;;;;;;;;;4989056;28;20100;-71
2022/02/14 10:53:48;;;;;;;4.53;1.67;;;;;;;;;;4988867;28;20127;-72
2022/02/14 10:56:18;;;;;;;5.00;2.13;;;;;;;;;;5004336;28;20549;-71
2022/02/14 10:58:44;;;;;;;2.45;1.75;;;;;;;;;;4987275;28;20034;-70
2022/02/14 11:01:11;;;;;;;3.85;1.88;;;;;;;;;;4989345;28;20034;-70
2022/02/14 11:03:41;;;;;;;3.30;1.90;;;;;;;;;;4989337;28;20035;-72
2022/02/14 11:06:07;;;;;;;3.75;1.70;;;;;;;;;;4983829;28;20059;-71
2022/02/14 11:08:34;;;;;;;2.95;1.70;;;;;;;;;;4984586;28;20485;-73
2022/02/14 11:11:02;;;;;;;4.80;2.95;;;;;;;;;;4991064;28;20022;-73
2022/02/14 11:13:30;;;;;;;6.72;1.92;;;;;;;;;;4988514;28;20054;-72
2022/02/14 11:15:58;;;;;;;4.75;2.83;;;;;;;;;;4992311;28;20401;-71
2022/02/14 11:18:31;;;;;;;2.33;1.85;;;;;;;;;;4985331;28;20226;-72
2022/02/14 11:20:59;;;;;;;4.10;1.85;;;;;;;;;;4988942;28;20034;-71
2022/02/14 11:23:28;;;;;;;4.53;1.92;;;;;;;;;;4988429;28;20053;-72
2022/02/14 11:26:12;;;;;;;5.90;2.15;;;;;;;;;;4990773;28;20061;-72
2022/02/14 11:29:06;;;;;;;1.90;1.70;;;;;;;;;;4989409;28;20026;-72
2022/02/14 11:31:33;;;;;;;6.38;2.80;;;;;;;;;;4990813;28;20026;-71
2022/02/14 11:34:03;;;;;;;3.60;1.83;;;;;;;;;;4987100;28;20089;-71
2022/02/14 11:36:31;;;;;;;8.43;2.40;;;;;;;;;;4989049;28;20042;-72
2022/02/14 11:38:59;;;;;;;8.70;2.03;;;;;;;;;;4988586;28;20030;-73
2022/02/14 11:41:41;;;;;;;4.85;1.83;;;;;;;;;;4982569;28;20030;-71
2022/02/14 11:44:16;;;;;;;5.57;1.98;;;;;;;;;;4987297;28;20096;-71
2022/02/14 11:46:54;;;;;;;3.63;1.85;;;;;;;;;;4979626;28;20038;-71
2022/02/14 11:49:21;;;;;;;2.58;1.67;;;;;;;;;;4986535;28;20062;-72
2022/02/14 11:51:53;;;;;;;4.00;1.63;;;;;;;;;;4991885;28;20098;-72
2022/02/14 11:54:38;;;;;;;6.82;1.90;;;;;;;;;;4985259;28;20088;-71
2022/02/14 11:57:23;;;;;;;3.42;2.08;;;;;;;;;;4999199;28;20440;-71
2022/02/14 11:59:50;;;;;;;5.28;2.03;;;;;;;;;;4989453;28;20026;-71
2022/02/14 12:02:25;;;;;;;6.03;2.13;;;;;;;;;;4990416;28;20101;-72
2022/02/14 12:04:52;;;;;;;4.30;1.85;;;;;;;;;;4989725;28;20026;-72
2022/02/14 12:07:21;;;;;;;6.38;2.40;;;;;;;;;;4979281;28;20053;-72
2022/02/14 12:10:03;;;;;;;2.50;1.92;;;;;;;;;;4989054;28;20055;-73
2022/02/14 12:13:04;;;;;;;3.55;2.00;;;;;;;;;;5005508;28;20519;-71
2022/02/14 12:21:19;;;;;;;3.85;2.05;;;;;;;;;;4990065;28;20041;-71
2022/02/14 12:23:47;;;;;;;4.85;2.00;;;;;;;;;;4989388;28;20153;-71
2022/02/14 12:26:14;;;;;;;5.60;2.30;;;;;;;;;;4986483;28;20022;-72
2022/02/14 12:28:41;;;;;;;7.55;2.83;;;;;;;;;;4980932;28;20370;-72
2022/02/14 12:31:07;;;;;;;5.40;2.00;;;;;;;;;;4986441;28;20559;-73
2022/02/14 12:33:35;;;;;;;7.40;2.83;;;;;;;;;;4984248;28;20576;-72
2022/02/14 12:36:03;;;;;;;6.22;3.10;;;;;;;;;;4994788;28;20459;-73
2022/02/14 12:38:31;;;;;;;6.65;2.40;;;;;;;;;;4984547;28;20050;-72
2022/02/14 12:41:01;;;;;;;4.78;2.42;;;;;;;;;;4988181;28;20374;-73
2022/02/14 12:43:34;;;;;;;5.00;2.05;;;;;;;;;;4988268;28;20085;-72
2022/02/14 12:46:10;;;;;;;6.75;2.47;;;;;;;;;;4987282;28;20027;-72
2022/02/14 12:48:41;;;;;;;8.45;2.85;;;;;;;;;;4990574;28;20038;-71
2022/02/14 12:51:13;;;;;;;6.50;2.97;;;;;;;;;;4991416;28;20034;-73
2022/02/14 12:53:50;;;;;;;7.93;2.67;;;;;;;;;;4985055;28;20030;-73
2022/02/14 12:56:19;;;;;;;5.63;1.98;;;;;;;;;;4988633;28;20026;-72
2022/02/14 12:59:04;;;;;;;4.28;2.40;;;;;;;;;;4985684;28;20556;-73
2022/02/14 13:01:37;;;;;;;6.97;2.67;;;;;;;;;;4986380;28;20038;-74
2022/02/14 13:04:04;;;;;;;6.10;2.13;;;;;;;;;;5001398;28;20035;-73
2022/02/14 13:06:39;;;;;;;6.50;2.20;;;;;;;;;;5000182;28;20033;-71
2022/02/14 13:09:18;;;;;;;4.72;2.25;;;;;;;;;;4993479;28;20036;-72
2022/02/14 13:11:45;;;;;;;5.43;2.25;;;;;;;;;;4994489;28;20042;-73
2022/02/14 13:14:26;;;;;;;4.85;2.20;;;;;;;;;;4988168;28;20066;-73
2022/02/14 13:16:53;;;;;;;7.78;3.10;;;;;;;;;;4992605;28;20400;-73
2022/02/14 13:19:19;;;;;;;3.47;1.98;;;;;;;;;;4987194;28;20027;-73
2022/02/14 13:21:45;;;;;;;5.18;2.33;;;;;;;;;;4994143;28;20077;-72
2022/02/14 13:24:38;;;;;;;4.65;2.13;;;;;;;;;;4993850;28;20022;-72
2022/02/14 13:27:12;;;;;;;4.95;2.10;;;;;;;;;;4989377;28;20133;-72
2022/02/14 13:29:43;;;;;;;7.72;2.30;;;;;;;;;;4990687;28;20030;-72
2022/02/14 13:32:10;;;;;;;4.25;2.22;;;;;;;;;;4996264;28;20027;-73
2022/02/14 13:34:36;;;;;;;4.00;1.73;;;;;;;;;;4984909;28;20102;-73
2022/02/14 13:37:10;;;;;;;2.83;1.90;;;;;;;;;;4987182;28;20022;-72
2022/02/14 13:39:36;;;;;;;5.90;2.27;;;;;;;;;;4986032;28;20027;-72
2022/02/14 13:42:06;;;;;;;3.53;1.98;;;;;;;;;;5008093;28;20042;-72
2022/02/14 13:44:32;;;;;;;2.97;1.70;;;;;;;;;;4989767;28;20053;-73
2022/02/14 13:47:18;;;;;;;7.88;2.20;;;;;;;;;;4987674;28;20222;-73
2022/02/14 13:49:44;;;;;;;4.38;1.83;;;;;;;;;;4989319;28;20041;-74
2022/02/14 13:52:21;;;;;;;2.95;2.20;;;;;;;;;;4986911;28;20512;-71
2022/02/14 13:55:01;;;;;;;3.65;2.15;;;;;;;;;;4984457;28;20019;-72
2022/02/14 13:57:27;;;;;;;4.70;2.03;;;;;;;;;;4985999;28;20030;-73
2022/02/14 13:59:53;;;;;;;2.95;2.35;;;;;;;;;;4985426;28;20023;-72
2022/02/14 14:02:20;;;;;;;4.72;1.73;;;;;;;;;;4993161;28;20359;-73
2022/02/14 14:04:48;;;;;;;4.85;1.67;;;;;;;;;;4975629;28;20069;-72
2022/02/14 14:07:21;;;;;;;4.82;2.00;;;;;;;;;;4978473;28;20042;-73
2022/02/14 14:09:49;;;;;;;2.28;1.77;;;;;;;;;;4985977;28;20015;-73
2022/02/14 14:12:16;;;;;;;3.22;1.77;;;;;;;;;;4987970;28;20542;-74
2022/02/14 14:14:43;;;;;;;5.22;2.45;;;;;;;;;;4981701;28;20076;-74
2022/02/14 14:17:10;;;;;;;5.30;2.08;;;;;;;;;;4980717;28;20019;-74
2022/02/14 14:19:45;;;;;;;3.58;1.90;;;;;;;;;;4983112;28;20056;-72
2022/02/14 14:22:12;;;;;;;2.72;1.60;;;;;;;;;;4988069;28;20026;-72
2022/02/14 14:24:38;;;;;;;4.07;2.33;;;;;;;;;;4987495;28;20026;-73
2022/02/14 14:27:06;;;;;;;5.38;2.15;;;;;;;;;;4992195;28;20045;-72
2022/02/14 14:29:32;;;;;;;3.85;1.73;;;;;;;;;;4988026;28;20034;-73
2022/02/14 14:31:59;;;;;;;2.90;2.22;;;;;;;;;;4989808;28;20015;-73
2022/02/14 14:34:25;;;;;;;3.75;2.13;;;;;;;;;;4980858;28;20022;-73
2022/02/14 14:36:51;;;;;;;2.08;1.60;;;;;;;;;;4987719;28;20095;-72
2022/02/14 14:39:17;;;;;;;3.10;1.80;;;;;;;;;;4984727;28;20038;-72
2022/02/14 14:41:43;;;;;;;5.38;2.20;;;;;;;;;;4991018;28;20098;-72
2022/02/14 14:44:09;;;;;;;2.92;1.70;;;;;;;;;;4992452;28;20369;-73
2022/02/14 14:46:35;;;;;;;5.25;2.03;;;;;;;;;;4978332;28;20041;-72
2022/02/14 14:49:01;;;;;;;3.50;1.90;;;;;;;;;;4988112;28;20077;-72
2022/02/14 14:51:28;;;;;;;3.40;2.00;;;;;;;;;;4990745;28;20034;-71
2022/02/14 14:53:54;;;;;;;3.13;1.70;;;;;;;;;;4980665;28;20026;-72